Terminal Aerodrome Forecast
Issued by NWS

Home | Current Version | Previous Version | Text Only | Print | Product List | Glossary On
Versions: 1 2 3 4 5 6 7 8 9 10 11 12 13 14 15 16
000
FTUS42 KMLB 291100
TAFLEE
TAF
KLEE 291129Z 2912/3012 24007KT P6SM VCSH SCT025 SCT250
      TEMPO 2913/2915 5SM -SHRA BKN030
     FM291500 28010KT P6SM VCTS SCT035CB SCT080 BKN250
      TEMPO 2915/2918 3SM TSRA BKN035CB OVC080
     FM300000 24007KT P6SM SCT040 BKN250=

USA.gov is the U.S. government's official web portal to all federal, state and local government web resources and services.